createdAt,value
2017-11-09T00:00:50.847Z,68.40
2017-11-09T00:03:24.458Z,68.20
2017-11-09T00:06:03.678Z,68.20
2017-11-09T00:08:37.232Z,68.30
2017-11-09T00:11:11.650Z,68.50
2017-11-09T00:13:45.954Z,68.30
2017-11-09T00:16:19.559Z,68.30
2017-11-09T00:18:53.127Z,68.30
2017-11-09T00:21:26.754Z,68.20
2017-11-09T00:24:01.280Z,68.40
2017-11-09T00:26:34.992Z,68.30
2017-11-09T00:29:08.751Z,68.20
2017-11-09T00:31:42.390Z,68.20
2017-11-09T00:34:15.859Z,68.10
2017-11-09T00:36:49.500Z,67.90
2017-11-09T00:39:23.194Z,68.10
2017-11-09T00:41:57.490Z,67.90
2017-11-09T00:44:31.114Z,67.80
2017-11-09T00:47:05.618Z,67.80
2017-11-09T00:49:39.190Z,67.80
2017-11-09T00:52:12.735Z,68.00
2017-11-09T00:54:46.232Z,68.00
2017-11-09T00:57:19.730Z,68.30
2017-11-09T00:59:53.344Z,68.40
2017-11-09T01:02:26.940Z,69.20
2017-11-09T01:05:00.430Z,68.40
2017-11-09T01:07:34.134Z,68.30
2017-11-09T01:10:07.738Z,68.30
2017-11-09T01:12:41.748Z,68.50
2017-11-09T01:15:15.303Z,68.20
2017-11-09T01:17:49.053Z,68.10
2017-11-09T01:20:22.658Z,68.00
2017-11-09T01:22:56.423Z,68.20
2017-11-09T01:25:30.935Z,68.00
2017-11-09T01:28:04.782Z,67.70
2017-11-09T01:30:39.087Z,67.90
2017-11-09T01:33:12.712Z,67.80
2017-11-09T01:35:46.403Z,67.90
2017-11-09T01:38:20.007Z,67.90
2017-11-09T01:40:53.607Z,67.90
2017-11-09T01:43:27.216Z,67.80
2017-11-09T01:46:01.014Z,67.90
2017-11-09T01:48:34.615Z,67.60
2017-11-09T01:51:08.187Z,67.70
2017-11-09T01:53:41.714Z,67.70
2017-11-09T01:56:15.255Z,68.00
2017-11-09T01:58:49.025Z,67.80
2017-11-09T02:01:22.719Z,67.90
2017-11-09T02:03:56.380Z,67.40
2017-11-09T02:06:29.923Z,67.90
2017-11-09T02:09:03.490Z,67.70
2017-11-09T02:11:37.127Z,67.70
2017-11-09T02:14:10.827Z,67.80
2017-11-09T02:16:45.043Z,68.00
2017-11-09T02:19:19.263Z,67.60
2017-11-09T02:21:53.654Z,67.70
2017-11-09T02:24:27.130Z,67.70
2017-11-09T02:27:00.676Z,67.40
2017-11-09T02:29:34.275Z,67.40
2017-11-09T02:32:07.831Z,67.30
2017-11-09T02:34:41.476Z,67.50
2017-11-09T02:37:15.280Z,67.30
2017-11-09T02:39:48.867Z,67.40
2017-11-09T02:42:22.586Z,67.50
2017-11-09T02:44:56.374Z,67.30
2017-11-09T02:47:30.005Z,67.30
2017-11-09T02:50:03.550Z,67.40
2017-11-09T02:52:37.206Z,67.50
2017-11-09T02:55:10.770Z,67.30
2017-11-09T02:57:44.371Z,67.30
2017-11-09T03:00:18.895Z,67.20
2017-11-09T03:02:52.474Z,67.10
2017-11-09T03:05:26.939Z,67.20
2017-11-09T03:08:00.512Z,67.20
2017-11-09T03:10:34.107Z,67.20
2017-11-09T03:13:08.251Z,67.20
2017-11-09T03:15:41.886Z,67.20
2017-11-09T03:18:15.415Z,67.30
2017-11-09T03:20:49.458Z,67.30
2017-11-09T03:23:23.166Z,67.30
2017-11-09T03:25:57.274Z,67.00
2017-11-09T03:28:30.951Z,66.90
2017-11-09T03:31:04.613Z,67.10
2017-11-09T03:33:38.103Z,67.10
2017-11-09T03:36:11.781Z,67.20
2017-11-09T03:38:46.008Z,67.00
2017-11-09T03:41:19.607Z,67.00
2017-11-09T03:43:53.197Z,67.00
2017-11-09T03:46:26.798Z,67.00
2017-11-09T03:49:01.227Z,67.10
2017-11-09T03:51:35.031Z,67.20
2017-11-09T03:54:09.051Z,66.70
2017-11-09T03:56:42.839Z,66.60
2017-11-09T03:59:16.449Z,66.70
2017-11-09T04:01:50.256Z,66.70
2017-11-09T04:04:23.954Z,67.10
2017-11-09T04:06:57.663Z,66.50
2017-11-09T04:09:31.254Z,66.90
2017-11-09T04:12:04.864Z,67.00
2017-11-09T04:14:39.123Z,67.00
2017-11-09T04:17:12.747Z,67.00
2017-11-09T04:19:47.202Z,67.10
2017-11-09T04:22:21.616Z,67.00
2017-11-09T04:24:55.436Z,67.00
2017-11-09T04:27:29.114Z,67.10
2017-11-09T04:30:02.831Z,66.80
2017-11-09T04:32:36.426Z,67.10
2017-11-09T04:35:10.241Z,66.70
2017-11-09T04:37:44.247Z,66.70
2017-11-09T04:40:18.426Z,66.90
2017-11-09T04:42:52.774Z,67.10
2017-11-09T04:45:26.274Z,67.10
2017-11-09T04:47:59.938Z,66.90
2017-11-09T04:50:33.787Z,67.00
2017-11-09T04:53:07.491Z,66.90
2017-11-09T04:55:41.185Z,67.00
2017-11-09T04:58:14.763Z,66.90
2017-11-09T05:00:48.555Z,67.00
2017-11-09T05:03:23.123Z,67.20
2017-11-09T05:05:56.609Z,67.00
2017-11-09T05:08:31.085Z,66.90
2017-11-09T05:11:04.941Z,66.80
2017-11-09T05:13:38.751Z,66.60
2017-11-09T05:16:13.065Z,66.70
2017-11-09T05:18:46.753Z,66.60
2017-11-09T05:21:20.375Z,66.40
2017-11-09T05:23:53.979Z,66.40
2017-11-09T05:26:28.375Z,66.10
2017-11-09T05:29:03.360Z,66.10
2017-11-09T05:31:37.035Z,66.10
2017-11-09T05:34:10.714Z,66.00
2017-11-09T05:36:44.311Z,66.10
2017-11-09T05:39:17.939Z,66.50
2017-11-09T05:41:51.444Z,66.40
2017-11-09T05:44:24.909Z,66.50
2017-11-09T05:46:59.465Z,66.30
2017-11-09T05:49:33.797Z,66.40
2017-11-09T05:52:07.463Z,66.40
2017-11-09T05:54:40.966Z,66.30
2017-11-09T05:57:14.585Z,66.30
2017-11-09T05:59:48.246Z,66.40
2017-11-09T06:02:21.889Z,66.50
2017-11-09T06:04:55.482Z,66.50
2017-11-09T06:07:29.998Z,66.40
2017-11-09T06:10:03.440Z,66.40
2017-11-09T06:12:37.119Z,66.30
2017-11-09T06:15:10.697Z,66.30
2017-11-09T06:17:44.206Z,66.20
2017-11-09T06:20:17.903Z,66.50
2017-11-09T06:22:51.602Z,66.70
2017-11-09T06:25:25.927Z,66.50
2017-11-09T06:27:59.518Z,66.50
2017-11-09T06:30:33.119Z,66.60
2017-11-09T06:33:06.826Z,66.30
2017-11-09T06:35:40.426Z,66.50
2017-11-09T06:38:14.231Z,66.40
2017-11-09T06:40:47.832Z,66.40
2017-11-09T06:43:21.499Z,66.20
2017-11-09T06:45:55.162Z,66.20
2017-11-09T06:48:28.853Z,66.40
2017-11-09T06:51:03.119Z,66.40
2017-11-09T06:53:36.738Z,66.60
2017-11-09T06:56:10.370Z,66.20
2017-11-09T06:58:44.882Z,66.00
2017-11-09T07:01:18.909Z,66.20
2017-11-09T07:03:52.703Z,66.60
2017-11-09T07:06:26.270Z,66.60
2017-11-09T07:08:59.798Z,66.40
2017-11-09T07:11:33.319Z,66.60
2017-11-09T07:14:06.988Z,66.90
2017-11-09T07:16:40.598Z,66.60
2017-11-09T07:19:14.202Z,66.60
2017-11-09T07:21:47.807Z,66.70
2017-11-09T07:24:21.299Z,66.70
2017-11-09T07:26:55.007Z,67.00
2017-11-09T07:29:28.729Z,66.80
2017-11-09T07:32:02.520Z,66.70
2017-11-09T07:34:36.115Z,66.60
2017-11-09T07:37:09.570Z,66.70
2017-11-09T07:39:43.111Z,66.80
2017-11-09T07:42:16.811Z,66.70
2017-11-09T07:44:50.617Z,66.70
2017-11-09T07:47:24.303Z,66.70
2017-11-09T07:49:57.889Z,66.50
2017-11-09T07:52:31.525Z,66.70
2017-11-09T07:55:04.983Z,66.90
2017-11-09T07:57:38.518Z,66.60
2017-11-09T08:00:12.326Z,66.50
2017-11-09T08:02:46.682Z,67.00
2017-11-09T08:05:20.934Z,66.40
2017-11-09T08:07:55.484Z,66.20
2017-11-09T08:10:29.194Z,66.20
2017-11-09T08:13:02.789Z,66.20
2017-11-09T08:15:37.103Z,65.90
2017-11-09T08:18:10.690Z,65.90
2017-11-09T08:20:44.297Z,65.30
2017-11-09T08:23:17.887Z,65.50
2017-11-09T08:25:52.781Z,66.40
2017-11-09T08:28:28.358Z,66.20
2017-11-09T08:31:04.102Z,66.20
2017-11-09T08:33:39.923Z,65.00
2017-11-09T08:36:13.435Z,65.10
2017-11-09T08:38:47.886Z,65.40
2017-11-09T08:41:21.614Z,65.30
2017-11-09T08:43:56.162Z,64.50
2017-11-09T08:46:29.938Z,64.50
2017-11-09T08:49:03.643Z,64.50
2017-11-09T08:51:37.243Z,63.80
2017-11-09T08:54:10.726Z,64.00
2017-11-09T08:56:44.313Z,64.20
2017-11-09T08:59:18.046Z,64.50
2017-11-09T09:01:51.650Z,64.10
2017-11-09T09:04:25.350Z,64.20
2017-11-09T09:06:59.038Z,64.40
2017-11-09T09:09:32.654Z,64.20
2017-11-09T09:12:06.226Z,63.40
2017-11-09T09:14:39.987Z,63.30
2017-11-09T09:17:13.634Z,64.10
2017-11-09T09:19:47.138Z,63.90
2017-11-09T09:22:21.300Z,64.10
2017-11-09T09:24:57.294Z,64.10
2017-11-09T09:27:31.726Z,64.30
2017-11-09T09:30:23.905Z,64.30
2017-11-09T09:36:08.906Z,64.20
2017-11-09T09:38:47.939Z,64.50
2017-11-09T09:41:21.665Z,64.50
2017-11-09T09:43:55.278Z,64.60
2017-11-09T09:46:28.803Z,64.60
2017-11-09T09:49:02.457Z,64.50
2017-11-09T09:51:36.011Z,64.30
2017-11-09T09:54:10.411Z,64.80
2017-11-09T09:56:43.913Z,64.70
2017-11-09T09:59:17.544Z,64.90
2017-11-09T10:01:51.031Z,65.00
2017-11-09T10:04:25.231Z,65.00
2017-11-09T10:06:59.018Z,65.40
2017-11-09T10:09:34.296Z,64.90
2017-11-09T10:12:07.887Z,64.90
2017-11-09T10:14:41.388Z,64.60
2017-11-09T10:17:15.086Z,64.70
2017-11-09T10:19:48.800Z,65.00
2017-11-09T10:22:22.391Z,65.10
2017-11-09T10:24:56.716Z,65.10
2017-11-09T10:27:30.431Z,65.10
2017-11-09T10:30:04.023Z,65.00
2017-11-09T10:32:37.619Z,65.50
2017-11-09T10:35:11.062Z,65.30
2017-11-09T10:37:44.680Z,65.40
2017-11-09T10:40:18.338Z,65.10
2017-11-09T10:42:51.980Z,65.40
2017-11-09T10:45:25.503Z,65.70
2017-11-09T10:47:59.084Z,65.70
2017-11-09T10:50:33.514Z,66.00
2017-11-09T10:53:07.222Z,65.90
2017-11-09T10:55:40.837Z,65.80
2017-11-09T10:58:14.514Z,66.00
2017-11-09T11:00:48.246Z,65.80
2017-11-09T11:03:21.950Z,66.20
2017-11-09T11:05:55.455Z,66.40
2017-11-09T11:08:29.058Z,66.40
2017-11-09T11:11:02.751Z,66.00
2017-11-09T11:13:36.568Z,66.30
2017-11-09T11:16:10.139Z,66.20
2017-11-09T11:18:43.758Z,66.20
2017-11-09T11:21:17.314Z,66.40
2017-11-09T11:23:50.873Z,66.30
2017-11-09T11:26:24.362Z,66.30
2017-11-09T11:28:57.907Z,66.70
2017-11-09T11:31:32.284Z,67.20
2017-11-09T11:34:05.978Z,66.90
2017-11-09T11:36:39.682Z,67.00
2017-11-09T11:39:13.385Z,66.80
2017-11-09T11:41:47.074Z,66.40
2017-11-09T11:44:20.686Z,65.80
2017-11-09T11:46:54.907Z,65.00
2017-11-09T11:49:28.505Z,65.00
2017-11-09T11:52:02.110Z,64.30
2017-11-09T11:54:35.594Z,63.90
2017-11-09T11:57:09.174Z,63.60
2017-11-09T11:59:42.683Z,63.60
2017-11-09T12:02:17.202Z,63.10
2017-11-09T12:04:51.915Z,62.60
2017-11-09T12:07:26.370Z,61.20
2017-11-09T12:10:00.071Z,61.90
2017-11-09T12:12:33.744Z,62.10
2017-11-09T12:15:07.583Z,62.20
2017-11-09T12:17:41.091Z,61.70
2017-11-09T12:20:15.376Z,62.10
2017-11-09T12:22:49.110Z,62.00
2017-11-09T12:25:22.707Z,61.30
2017-11-09T12:27:56.311Z,61.30
2017-11-09T12:30:29.918Z,60.80
2017-11-09T12:33:04.405Z,60.90
2017-11-09T12:35:38.115Z,60.90
2017-11-09T12:38:11.686Z,60.90
2017-11-09T12:40:45.406Z,61.00
2017-11-09T12:43:18.934Z,60.30
2017-11-09T12:45:53.072Z,60.40
2017-11-09T12:48:26.707Z,60.70
2017-11-09T12:51:00.735Z,60.60
2017-11-09T12:53:34.571Z,60.40
2017-11-09T12:56:08.167Z,60.90
2017-11-09T12:58:41.795Z,61.00
2017-11-09T13:01:15.684Z,60.70
2017-11-09T13:03:49.976Z,60.80
2017-11-09T13:06:23.699Z,60.80
2017-11-09T13:08:57.395Z,61.10
2017-11-09T13:11:31.202Z,60.80
2017-11-09T13:14:05.010Z,60.90
2017-11-09T13:16:38.733Z,60.70
2017-11-09T13:19:12.497Z,60.80
2017-11-09T13:21:45.994Z,61.00
2017-11-09T13:24:19.606Z,60.70
2017-11-09T13:26:53.279Z,60.80
2017-11-09T13:29:27.031Z,60.50
2017-11-09T13:32:00.703Z,60.60
2017-11-09T13:34:40.958Z,60.70
2017-11-09T13:37:14.458Z,60.70
2017-11-09T13:39:48.083Z,60.70
2017-11-09T13:42:22.492Z,61.10
2017-11-09T13:44:56.940Z,60.60
2017-11-09T13:47:31.314Z,60.70
2017-11-09T13:50:04.851Z,60.70
2017-11-09T13:52:38.306Z,60.70
2017-11-09T13:55:11.823Z,60.80
2017-11-09T13:57:46.295Z,60.90
2017-11-09T14:00:19.871Z,60.90
2017-11-09T14:02:53.570Z,60.90
2017-11-09T14:05:27.166Z,60.70
2017-11-09T14:08:00.770Z,60.70
2017-11-09T14:10:34.366Z,60.70
2017-11-09T14:13:08.070Z,60.70
2017-11-09T14:15:41.526Z,60.60
2017-11-09T14:18:15.170Z,60.90
2017-11-09T14:20:48.766Z,60.50
2017-11-09T14:23:22.275Z,60.30
2017-11-09T14:25:55.878Z,60.50
2017-11-09T14:28:30.299Z,60.80
2017-11-09T14:31:04.099Z,60.20
2017-11-09T14:33:38.691Z,60.50
2017-11-09T14:36:12.340Z,60.50
2017-11-09T14:38:50.943Z,60.60
2017-11-09T14:41:24.639Z,60.90
2017-11-09T14:43:58.356Z,60.60
2017-11-09T14:46:34.694Z,60.80
2017-11-09T14:49:08.523Z,60.60
2017-11-09T14:51:42.107Z,60.50
2017-11-09T14:54:15.927Z,60.40
2017-11-09T14:56:49.611Z,60.60
2017-11-09T14:59:23.337Z,60.60
2017-11-09T15:01:57.020Z,60.20
2017-11-09T15:04:30.638Z,60.00
2017-11-09T15:07:04.234Z,60.40
2017-11-09T15:09:38.339Z,60.50
2017-11-09T15:12:12.056Z,60.40
2017-11-09T15:14:46.558Z,60.30
2017-11-09T15:17:20.262Z,60.30
2017-11-09T15:19:53.852Z,60.00
2017-11-09T15:22:27.437Z,60.20
2017-11-09T15:25:01.078Z,59.70
2017-11-09T15:27:34.678Z,59.80
2017-11-09T15:30:08.184Z,60.00
2017-11-09T15:32:42.126Z,60.20
2017-11-09T15:35:16.494Z,60.10
2017-11-09T15:37:50.423Z,60.10
2017-11-09T15:40:24.119Z,60.60
2017-11-09T15:42:57.718Z,60.80
2017-11-09T15:45:31.319Z,61.10
2017-11-09T15:48:05.027Z,61.20
2017-11-09T15:50:38.732Z,60.80
2017-11-09T15:53:13.226Z,60.40
2017-11-09T15:55:46.950Z,60.40
2017-11-09T15:58:20.555Z,60.30
2017-11-09T16:00:54.122Z,60.50
2017-11-09T16:03:27.654Z,60.30
2017-11-09T16:06:01.139Z,59.90
2017-11-09T16:08:34.661Z,60.30
2017-11-09T16:11:08.186Z,60.30
2017-11-09T16:13:41.718Z,60.60
2017-11-09T16:16:15.442Z,59.70
2017-11-09T16:18:48.895Z,59.80
2017-11-09T16:21:22.555Z,60.20
2017-11-09T16:23:56.025Z,60.40
2017-11-09T16:26:29.808Z,60.60
2017-11-09T16:29:05.944Z,60.50
2017-11-09T16:31:39.397Z,60.40
2017-11-09T16:34:13.694Z,61.10
2017-11-09T16:36:47.244Z,61.10
2017-11-09T16:39:20.892Z,61.10
2017-11-09T16:41:54.339Z,61.30
2017-11-09T16:44:27.994Z,61.30
2017-11-09T16:47:01.647Z,61.20
2017-11-09T16:49:35.298Z,61.40
2017-11-09T16:52:08.956Z,61.60
2017-11-09T16:54:43.239Z,61.80
2017-11-09T16:57:16.701Z,61.80
2017-11-09T16:59:50.213Z,61.60
2017-11-09T17:02:23.870Z,61.40
2017-11-09T17:04:57.494Z,61.30
2017-11-09T17:07:31.027Z,61.30
2017-11-09T17:10:04.655Z,61.20
2017-11-09T17:12:38.326Z,61.10
2017-11-09T17:15:11.843Z,61.40
2017-11-09T17:17:45.458Z,61.20
2017-11-09T17:20:19.730Z,61.50
2017-11-09T17:22:53.393Z,61.40
2017-11-09T17:25:26.827Z,60.90
2017-11-09T17:28:01.063Z,60.40
2017-11-09T17:30:35.282Z,60.70
2017-11-09T17:33:08.813Z,60.70
2017-11-09T17:35:42.434Z,60.50
2017-11-09T17:38:16.091Z,60.90
2017-11-09T17:40:49.596Z,60.80
2017-11-09T17:43:29.631Z,61.00
2017-11-09T17:46:03.842Z,61.20
2017-11-09T17:48:37.386Z,61.20
2017-11-09T17:51:14.354Z,61.00
2017-11-09T17:53:47.842Z,61.10
2017-11-09T17:56:25.017Z,60.80
2017-11-09T17:59:01.325Z,61.20
2017-11-09T18:01:34.983Z,61.10
2017-11-09T18:04:08.446Z,61.40
2017-11-09T18:06:41.958Z,61.10
2017-11-09T18:09:15.404Z,61.40
2017-11-09T18:11:49.677Z,61.50
2017-11-09T18:14:23.207Z,61.50
2017-11-09T18:16:56.723Z,61.80
2017-11-09T18:19:30.162Z,61.70
2017-11-09T18:22:03.807Z,61.50
2017-11-09T18:24:37.320Z,61.60
2017-11-09T18:27:10.766Z,61.60
2017-11-09T18:29:45.000Z,61.60
2017-11-09T18:32:18.576Z,61.60
2017-11-09T18:34:52.031Z,61.60
2017-11-09T18:37:25.628Z,61.60
2017-11-09T18:39:59.071Z,61.80
2017-11-09T18:42:32.583Z,62.00
2017-11-09T18:45:06.031Z,61.80
2017-11-09T18:47:39.620Z,61.90
2017-11-09T18:50:13.058Z,61.80
2017-11-09T18:52:46.695Z,62.00
2017-11-09T18:55:21.111Z,62.10
2017-11-09T18:57:55.318Z,62.10
2017-11-09T19:00:28.842Z,62.10
2017-11-09T19:03:03.147Z,61.90
2017-11-09T19:05:36.611Z,61.80
2017-11-09T19:08:10.122Z,61.80
2017-11-09T19:10:43.640Z,61.90
2017-11-09T19:13:17.198Z,61.60
2017-11-09T19:15:50.718Z,61.50
2017-11-09T19:18:25.146Z,61.50
2017-11-09T19:20:59.360Z,61.40
2017-11-09T19:23:33.787Z,61.30
2017-11-09T19:26:07.994Z,61.10
2017-11-09T19:28:42.415Z,60.50
2017-11-09T19:31:16.630Z,60.70
2017-11-09T19:33:50.842Z,60.60
2017-11-09T19:36:25.060Z,60.50
2017-11-09T19:38:58.585Z,60.50
2017-11-09T19:41:32.018Z,60.50
2017-11-09T19:44:05.471Z,60.70
2017-11-09T19:46:38.995Z,60.70
2017-11-09T19:49:12.554Z,60.30
2017-11-09T19:51:46.139Z,60.20
2017-11-09T19:54:19.579Z,60.30
2017-11-09T19:56:53.855Z,60.30
2017-11-09T19:59:27.386Z,60.30
2017-11-09T20:02:01.047Z,60.20
2017-11-09T20:04:34.498Z,60.20
2017-11-09T20:07:08.154Z,60.40
2017-11-09T20:09:41.818Z,60.00
2017-11-09T20:12:15.286Z,60.20
2017-11-09T20:14:48.730Z,60.30
2017-11-09T20:17:22.374Z,60.30
2017-11-09T20:19:56.584Z,60.40
2017-11-09T20:22:30.795Z,60.50
2017-11-09T20:25:04.321Z,60.50
2017-11-09T20:27:37.829Z,60.50
2017-11-09T20:30:11.374Z,60.80
2017-11-09T20:32:44.893Z,60.90
2017-11-09T20:35:18.336Z,60.60
2017-11-09T20:37:51.970Z,60.60
2017-11-09T20:40:25.413Z,60.80
2017-11-09T20:42:58.938Z,61.00
2017-11-09T20:45:32.603Z,60.80
2017-11-09T20:48:07.008Z,60.80
2017-11-09T20:50:40.578Z,60.70
2017-11-09T20:53:14.228Z,60.80
2017-11-09T20:55:47.792Z,60.60
2017-11-09T20:58:21.427Z,60.80
2017-11-09T21:00:55.858Z,61.00
2017-11-09T21:03:29.302Z,61.10
2017-11-09T21:06:03.018Z,61.10
2017-11-09T21:08:36.467Z,61.20
2017-11-09T21:11:09.915Z,60.90
2017-11-09T21:13:43.591Z,61.20
2017-11-09T21:16:17.051Z,61.80
2017-11-09T21:18:50.711Z,61.50
2017-11-09T21:21:25.223Z,61.30
2017-11-09T21:23:58.763Z,61.20
2017-11-09T21:26:32.222Z,61.40
2017-11-09T21:29:05.694Z,61.20
2017-11-09T21:31:39.979Z,59.70
2017-11-09T21:34:14.194Z,60.00
2017-11-09T21:36:47.633Z,59.90
2017-11-09T21:39:21.220Z,59.80
2017-11-09T21:41:55.510Z,59.50
2017-11-09T21:44:28.970Z,59.50
2017-11-09T21:47:02.479Z,59.10
2017-11-09T21:49:35.930Z,59.30
2017-11-09T21:52:10.194Z,59.40
2017-11-09T21:54:43.778Z,59.40
2017-11-09T21:57:17.296Z,59.40
2017-11-09T21:59:50.835Z,59.20
2017-11-09T22:02:24.395Z,58.90
2017-11-09T22:04:57.866Z,58.60
2017-11-09T22:07:31.382Z,58.70
2017-11-09T22:10:04.898Z,58.60
2017-11-09T22:12:38.410Z,58.70
2017-11-09T22:15:12.627Z,58.30
2017-11-09T22:17:46.834Z,58.30
2017-11-09T22:20:21.259Z,58.50
2017-11-09T22:22:55.465Z,58.40
2017-11-09T22:25:29.890Z,58.90
2017-11-09T22:28:03.482Z,58.90
2017-11-09T22:30:37.078Z,59.30
2017-11-09T22:33:10.614Z,59.30
2017-11-09T22:35:44.321Z,59.20
2017-11-09T22:38:19.651Z,59.30
2017-11-09T22:40:53.218Z,59.30
2017-11-09T22:43:26.934Z,59.20
2017-11-09T22:46:00.686Z,59.20
2017-11-09T22:48:35.083Z,59.50
2017-11-09T22:51:08.767Z,59.40
2017-11-09T22:53:42.391Z,59.60
2017-11-09T22:56:15.947Z,59.70
2017-11-09T22:58:49.591Z,59.80
2017-11-09T23:01:23.277Z,59.70
2017-11-09T23:03:57.610Z,59.80
2017-11-09T23:06:31.201Z,59.80
2017-11-09T23:09:05.014Z,59.90
2017-11-09T23:11:39.667Z,59.60
2017-11-09T23:14:13.426Z,59.60
2017-11-09T23:16:47.672Z,59.60
2017-11-09T23:19:21.462Z,59.60
2017-11-09T23:21:55.079Z,59.40
2017-11-09T23:24:28.870Z,59.40
2017-11-09T23:27:02.366Z,59.50
2017-11-09T23:29:38.935Z,59.50
2017-11-09T23:32:13.791Z,59.50
2017-11-09T23:34:47.682Z,59.60
2017-11-09T23:37:21.647Z,59.70
2017-11-09T23:39:55.271Z,59.60
2017-11-09T23:42:28.894Z,59.60
2017-11-09T23:45:02.651Z,59.70
2017-11-09T23:47:36.309Z,59.70
2017-11-09T23:50:09.884Z,60.00
2017-11-09T23:52:43.496Z,59.70
2017-11-09T23:55:17.207Z,60.00
2017-11-09T23:57:50.866Z,59.80
